PWSweather.com
Personal Weather Stations
Station Observations
KCTHAMDEN
Dunbar Hill, Hamden, CT 06514

Dunbar HillHamden, CT 06514

Lat: 41.365437, Lon: -72.956532

Elevation: 200

Station Type: Davis Vantage Pro2+

www.hamdenweather.com

High Low Average
Temperature 70.0°F21.1°F 54.4°F12.4°F 61.2°F16.2°F
Dew Point 61.7°F16.5°F 50.0°F10.0°F 55.3°F12.9°F
Winds 4.4 mph SW7.1 mph SW Calm Calm 1.4 mph 2.3 mph
Wind Gusts 10.0 mph16.1 mph -- 2.9 mph4.7 mph
Humidity 97% 64% 82%
Pressure 29.98 in1015.20 in 29.89 in1012.20 in -
Precipitation 0.00 in0.00 in - -
Hour Temp Dew Point Humidity Winds Wind Gusts Pressure Precip Precip Rate Daily Precip Total
12:00 AM 54.4°F12.4°C 52.4°F11.3°C 93% Calm Calm -- 29.95 in1014.2 mb - 0.00 in0.0 mm 0.00 in0.0 mm
12:15 AM 54.6°F12.6°C 52.6°F11.4°C 93% Calm Calm -- 29.94 in1013.9 mb - 0.00 in0.0 mm 0.00 in0.0 mm
12:30 AM 54.7°F12.6°C 53.0°F11.7°C 94% Calm Calm -- 29.93 in1013.5 mb - 0.00 in0.0 mm 0.00 in0.0 mm
12:45 AM 54.9°F12.7°C 53.2°F11.8°C 94% Calm Calm -- 29.93 in1013.5 mb - 0.00 in0.0 mm 0.00 in0.0 mm
01:00 AM 55.0°F12.8°C 53.3°F11.8°C 94% Calm Calm -- 29.93 in1013.5 mb - 0.00 in0.0 mm 0.00 in0.0 mm
01:15 AM 55.1°F12.8°C 53.4°F11.9°C 94% Calm Calm -- 29.93 in1013.5 mb - 0.00 in0.0 mm 0.00 in0.0 mm
01:30 AM 55.1°F12.8°C 53.7°F12.1°C 95% Calm Calm -- 29.93 in1013.5 mb - 0.00 in0.0 mm 0.00 in0.0 mm
01:45 AM 55.1°F12.8°C 53.7°F12.1°C 95% Calm Calm -- 29.92 in1013.2 mb - 0.00 in0.0 mm 0.00 in0.0 mm
02:00 AM 55.2°F12.9°C 53.8°F12.1°C 95% Calm Calm -- 29.92 in1013.2 mb - 0.00 in0.0 mm 0.00 in0.0 mm
02:15 AM 55.2°F12.9°C 53.8°F12.1°C 95% Calm Calm -- 29.92 in1013.2 mb - 0.00 in0.0 mm 0.00 in0.0 mm
02:30 AM 55.2°F12.9°C 53.8°F12.1°C 95% Calm Calm -- 29.93 in1013.5 mb - 0.00 in0.0 mm 0.00 in0.0 mm
02:45 AM 55.2°F12.9°C 53.8°F12.1°C 95% Calm Calm -- 29.93 in1013.5 mb - 0.00 in0.0 mm 0.00 in0.0 mm
03:00 AM 55.2°F12.9°C 53.8°F12.1°C 95% Calm Calm -- 29.93 in1013.5 mb - 0.00 in0.0 mm 0.00 in0.0 mm
03:15 AM 55.2°F12.9°C 53.8°F12.1°C 95% Calm Calm -- 29.92 in1013.2 mb - 0.00 in0.0 mm 0.00 in0.0 mm
03:30 AM 55.2°F12.9°C 53.8°F12.1°C 95% Calm Calm -- 29.92 in1013.2 mb - 0.00 in0.0 mm 0.00 in0.0 mm
03:45 AM 55.2°F12.9°C 53.8°F12.1°C 95% Calm Calm -- 29.91 in1012.9 mb - 0.00 in0.0 mm 0.00 in0.0 mm
04:00 AM 55.2°F12.9°C 53.8°F12.1°C 95% Calm Calm -- 29.92 in1013.2 mb - 0.00 in0.0 mm 0.00 in0.0 mm
04:15 AM 55.2°F12.9°C 53.8°F12.1°C 95% Calm Calm -- 29.90 in1012.5 mb - 0.00 in0.0 mm 0.00 in0.0 mm
04:30 AM 55.2°F12.9°C 54.1°F12.3°C 96% Calm Calm -- 29.89 in1012.2 mb - 0.00 in0.0 mm 0.00 in0.0 mm
04:45 AM 55.2°F12.9°C 53.8°F12.1°C 95% Calm Calm -- 29.90 in1012.5 mb - 0.00 in0.0 mm 0.00 in0.0 mm
05:00 AM 55.1°F12.8°C 53.7°F12.1°C 95% 0.2 mph SSW0.3 kmh SSW 1.0 mph1.6 kmh 29.91 in1012.9 mb - 0.00 in0.0 mm 0.00 in0.0 mm
05:15 AM 55.1°F12.8°C 54.0°F12.2°C 96% Calm Calm -- 29.93 in1013.5 mb - 0.00 in0.0 mm 0.00 in0.0 mm
05:30 AM 55.2°F12.9°C 54.1°F12.3°C 96% Calm Calm -- 29.93 in1013.5 mb - 0.00 in0.0 mm 0.00 in0.0 mm
05:45 AM 55.3°F12.9°C 54.2°F12.3°C 96% 0.1 mph SSW0.2 kmh SSW 1.0 mph1.6 kmh 29.93 in1013.5 mb - 0.00 in0.0 mm 0.00 in0.0 mm
06:00 AM 55.4°F13.0°C 54.3°F12.4°C 96% Calm Calm -- 29.93 in1013.5 mb - 0.00 in0.0 mm 0.00 in0.0 mm
06:15 AM 55.5°F13.1°C 54.4°F12.4°C 96% Calm Calm -- 29.94 in1013.9 mb - 0.00 in0.0 mm 0.00 in0.0 mm
06:30 AM 55.7°F13.2°C 54.6°F12.6°C 96% Calm Calm -- 29.95 in1014.2 mb - 0.00 in0.0 mm 0.00 in0.0 mm
06:45 AM 56.0°F13.3°C 54.9°F12.7°C 96% Calm Calm -- 29.94 in1013.9 mb - 0.00 in0.0 mm 0.00 in0.0 mm
07:00 AM 56.4°F13.6°C 55.6°F13.1°C 97% Calm Calm -- 29.94 in1013.9 mb - 0.00 in0.0 mm 0.00 in0.0 mm
07:15 AM 56.8°F13.8°C 56.0°F13.3°C 97% Calm Calm -- 29.95 in1014.2 mb - 0.00 in0.0 mm 0.00 in0.0 mm
07:30 AM 57.2°F14.0°C 56.3°F13.5°C 97% Calm Calm -- 29.96 in1014.6 mb - 0.00 in0.0 mm 0.00 in0.0 mm
07:45 AM 57.7°F14.3°C 56.8°F13.8°C 97% Calm Calm -- 29.96 in1014.6 mb - 0.00 in0.0 mm 0.00 in0.0 mm
08:00 AM 58.1°F14.5°C 57.3°F14.1°C 97% 0.4 mph SSW0.6 kmh SSW 1.0 mph1.6 kmh 29.96 in1014.6 mb - 0.00 in0.0 mm 0.00 in0.0 mm
08:15 AM 58.8°F14.9°C 57.7°F14.3°C 96% 0.4 mph SSW0.6 kmh SSW 2.0 mph3.2 kmh 29.96 in1014.6 mb - 0.00 in0.0 mm 0.00 in0.0 mm
08:30 AM 59.8°F15.4°C 58.4°F14.7°C 95% 0.7 mph S1.1 kmh S 2.0 mph3.2 kmh 29.97 in1014.9 mb - 0.00 in0.0 mm 0.00 in0.0 mm
08:45 AM 60.9°F16.1°C 58.8°F14.9°C 93% 2.1 mph SSE3.4 kmh SSE 4.0 mph6.4 kmh 29.97 in1014.9 mb - 0.00 in0.0 mm 0.00 in0.0 mm
09:00 AM 61.6°F16.4°C 58.7°F14.8°C 90% 2.8 mph SE4.5 kmh SE 7.0 mph11.3 kmh 29.96 in1014.6 mb - 0.00 in0.0 mm 0.00 in0.0 mm
09:15 AM 62.7°F17.1°C 58.8°F14.9°C 87% 1.7 mph S2.7 kmh S 2.0 mph3.2 kmh 29.96 in1014.6 mb - 0.00 in0.0 mm 0.00 in0.0 mm
09:30 AM 63.6°F17.6°C 58.7°F14.8°C 84% 1.0 mph SE1.6 kmh SE 2.0 mph3.2 kmh 29.95 in1014.2 mb - 0.00 in0.0 mm 0.00 in0.0 mm
09:45 AM 64.0°F17.8°C 58.0°F14.4°C 81% 2.6 mph SSW4.2 kmh SSW 4.0 mph6.4 kmh 29.95 in1014.2 mb - 0.00 in0.0 mm 0.00 in0.0 mm
10:00 AM 64.7°F18.2°C 58.8°F14.9°C 81% 1.6 mph ESE2.6 kmh ESE 4.0 mph6.4 kmh 29.96 in1014.6 mb - 0.00 in0.0 mm 0.00 in0.0 mm
10:15 AM 65.9°F18.8°C 58.8°F14.9°C 78% 0.8 mph NE1.3 kmh NE 2.0 mph3.2 kmh 29.95 in1014.2 mb - 0.00 in0.0 mm 0.00 in0.0 mm
10:30 AM 67.2°F19.6°C 60.1°F15.6°C 78% 1.9 mph SSE3.1 kmh SSE 8.0 mph12.9 kmh 29.95 in1014.2 mb - 0.00 in0.0 mm 0.00 in0.0 mm
10:45 AM 68.6°F20.3°C 60.3°F15.7°C 75% 2.0 mph SE3.2 kmh SE 4.0 mph6.4 kmh 29.96 in1014.6 mb - 0.00 in0.0 mm 0.00 in0.0 mm
11:00 AM 68.9°F20.5°C 60.6°F15.9°C 75% 1.8 mph SW2.9 kmh SW 2.0 mph3.2 kmh 29.95 in1014.2 mb - 0.00 in0.0 mm 0.00 in0.0 mm
11:15 AM 69.2°F20.7°C 60.6°F15.9°C 74% 3.9 mph E6.3 kmh E 6.0 mph9.7 kmh 29.95 in1014.2 mb - 0.00 in0.0 mm 0.00 in0.0 mm
11:30 AM 69.2°F20.7°C 60.6°F15.9°C 74% 2.7 mph ESE4.3 kmh ESE 6.0 mph9.7 kmh 29.95 in1014.2 mb - 0.00 in0.0 mm 0.00 in0.0 mm
11:45 AM 69.6°F20.9°C 60.9°F16.1°C 74% 2.2 mph N3.5 kmh N 3.0 mph4.8 kmh 29.96 in1014.6 mb - 0.00 in0.0 mm 0.00 in0.0 mm
12:00 PM 70.0°F21.1°C 61.7°F16.5°C 75% 2.6 mph S4.2 kmh S 5.0 mph8.0 kmh 29.96 in1014.6 mb - 0.00 in0.0 mm 0.00 in0.0 mm
12:15 PM 69.8°F21.0°C 60.4°F15.8°C 72% 1.4 mph SE2.3 kmh SE 2.0 mph3.2 kmh 29.98 in1015.2 mb - 0.00 in0.0 mm 0.00 in0.0 mm
12:30 PM 69.3°F20.7°C 59.5°F15.3°C 71% 1.6 mph SE2.6 kmh SE 6.0 mph9.7 kmh 29.98 in1015.2 mb - 0.00 in0.0 mm 0.00 in0.0 mm
12:45 PM 69.4°F20.8°C 60.0°F15.6°C 72% 2.5 mph SE4.0 kmh SE 3.0 mph4.8 kmh 29.98 in1015.2 mb - 0.00 in0.0 mm 0.00 in0.0 mm
01:00 PM 69.0°F20.6°C 59.6°F15.3°C 72% 3.2 mph S5.1 kmh S 4.0 mph6.4 kmh 29.98 in1015.2 mb - 0.00 in0.0 mm 0.00 in0.0 mm
01:15 PM 69.5°F20.8°C 59.3°F15.2°C 70% 3.6 mph SW5.8 kmh SW 7.0 mph11.3 kmh 29.98 in1015.2 mb - 0.00 in0.0 mm 0.00 in0.0 mm
01:30 PM 69.5°F20.8°C 59.3°F15.2°C 70% 3.5 mph ESE5.6 kmh ESE 8.0 mph12.9 kmh 29.98 in1015.2 mb - 0.00 in0.0 mm 0.00 in0.0 mm
01:45 PM 69.0°F20.6°C 59.6°F15.3°C 72% 3.6 mph E5.8 kmh E 7.0 mph11.3 kmh 29.98 in1015.2 mb - 0.00 in0.0 mm 0.00 in0.0 mm
02:00 PM 69.0°F20.6°C 58.8°F14.9°C 70% 3.3 mph SE5.3 kmh SE 7.0 mph11.3 kmh 29.97 in1014.9 mb - 0.00 in0.0 mm 0.00 in0.0 mm
02:15 PM 68.9°F20.5°C 59.1°F15.1°C 71% 4.3 mph ESE6.9 kmh ESE 8.0 mph12.9 kmh 29.97 in1014.9 mb - 0.00 in0.0 mm 0.00 in0.0 mm
02:30 PM 69.3°F20.7°C 59.5°F15.3°C 71% 3.9 mph S6.3 kmh S 5.0 mph8.0 kmh 29.97 in1014.9 mb - 0.00 in0.0 mm 0.00 in0.0 mm
02:45 PM 69.4°F20.8°C 60.8°F16.0°C 74% 2.0 mph SE3.2 kmh SE 3.0 mph4.8 kmh 29.96 in1014.6 mb - 0.00 in0.0 mm 0.00 in0.0 mm
03:00 PM 69.0°F20.6°C 59.2°F15.1°C 71% 3.3 mph S5.3 kmh S 4.0 mph6.4 kmh 29.97 in1014.9 mb - 0.00 in0.0 mm 0.00 in0.0 mm
03:15 PM 69.1°F20.6°C 59.7°F15.4°C 72% 2.1 mph S3.4 kmh S 3.0 mph4.8 kmh 29.96 in1014.6 mb - 0.00 in0.0 mm 0.00 in0.0 mm
03:30 PM 68.6°F20.3°C 58.4°F14.7°C 70% 3.1 mph SE5.0 kmh SE 4.0 mph6.4 kmh 29.97 in1014.9 mb - 0.00 in0.0 mm 0.00 in0.0 mm
03:45 PM 68.2°F20.1°C 58.0°F14.4°C 70% 3.5 mph ESE5.6 kmh ESE 6.0 mph9.7 kmh 29.96 in1014.6 mb - 0.00 in0.0 mm 0.00 in0.0 mm
04:00 PM 67.6°F19.8°C 57.4°F14.1°C 70% 1.9 mph E3.1 kmh E 6.0 mph9.7 kmh 29.96 in1014.6 mb - 0.00 in0.0 mm 0.00 in0.0 mm
04:15 PM 67.6°F19.8°C 57.5°F14.2°C 70% 2.8 mph S4.5 kmh S 8.0 mph12.9 kmh 29.96 in1014.6 mb - 0.00 in0.0 mm 0.00 in0.0 mm
04:30 PM 67.0°F19.4°C 56.5°F13.6°C 69% 1.8 mph S2.9 kmh S 4.0 mph6.4 kmh 29.96 in1014.6 mb - 0.00 in0.0 mm 0.00 in0.0 mm
04:45 PM 66.6°F19.2°C 56.1°F13.4°C 69% 2.2 mph SSE3.5 kmh SSE 4.0 mph6.4 kmh 29.96 in1014.6 mb - 0.00 in0.0 mm 0.00 in0.0 mm
05:00 PM 65.9°F18.8°C 54.6°F12.6°C 67% 1.0 mph SSE1.6 kmh SSE 5.0 mph8.0 kmh 29.96 in1014.6 mb - 0.00 in0.0 mm 0.00 in0.0 mm
05:15 PM 65.6°F18.7°C 53.9°F12.2°C 66% 4.1 mph SSE6.6 kmh SSE 7.0 mph11.3 kmh 29.96 in1014.6 mb - 0.00 in0.0 mm 0.00 in0.0 mm
05:30 PM 65.2°F18.4°C 54.0°F12.2°C 67% 2.6 mph SSE4.2 kmh SSE 5.0 mph8.0 kmh 29.97 in1014.9 mb - 0.00 in0.0 mm 0.00 in0.0 mm
05:45 PM 65.0°F18.3°C 52.5°F11.4°C 64% 4.4 mph SW7.1 kmh SW 9.0 mph14.5 kmh 29.97 in1014.9 mb - 0.00 in0.0 mm 0.00 in0.0 mm
06:00 PM 64.6°F18.1°C 52.6°F11.4°C 65% 3.2 mph ESE5.1 kmh ESE 4.0 mph6.4 kmh 29.97 in1014.9 mb - 0.00 in0.0 mm 0.00 in0.0 mm
06:15 PM 64.1°F17.8°C 52.5°F11.4°C 66% 2.0 mph SE3.2 kmh SE 10.0 mph16.1 kmh 29.97 in1014.9 mb - 0.00 in0.0 mm 0.00 in0.0 mm
06:30 PM 63.8°F17.7°C 52.6°F11.4°C 67% 1.9 mph SE3.1 kmh SE 4.0 mph6.4 kmh 29.97 in1014.9 mb - 0.00 in0.0 mm 0.00 in0.0 mm
06:45 PM 63.2°F17.3°C 51.2°F10.7°C 65% 3.2 mph E5.1 kmh E 8.0 mph12.9 kmh 29.97 in1014.9 mb - 0.00 in0.0 mm 0.00 in0.0 mm
07:00 PM 62.7°F17.1°C 51.6°F10.9°C 67% 1.5 mph SE2.4 kmh SE 3.0 mph4.8 kmh 29.97 in1014.9 mb - 0.00 in0.0 mm 0.00 in0.0 mm
07:15 PM 62.2°F16.8°C 51.1°F10.6°C 67% 1.3 mph SE2.1 kmh SE 3.0 mph4.8 kmh 29.97 in1014.9 mb - 0.00 in0.0 mm 0.00 in0.0 mm
07:30 PM 61.8°F16.6°C 51.1°F10.6°C 68% 2.4 mph SSE3.9 kmh SSE 3.0 mph4.8 kmh 29.97 in1014.9 mb - 0.00 in0.0 mm 0.00 in0.0 mm
07:45 PM 61.4°F16.3°C 50.7°F10.4°C 68% 1.6 mph S2.6 kmh S 7.0 mph11.3 kmh 29.98 in1015.2 mb - 0.00 in0.0 mm 0.00 in0.0 mm
08:00 PM 60.9°F16.1°C 50.6°F10.3°C 69% 0.8 mph S1.3 kmh S 5.0 mph8.0 kmh 29.98 in1015.2 mb - 0.00 in0.0 mm 0.00 in0.0 mm
08:15 PM 60.4°F15.8°C 50.6°F10.3°C 70% 0.8 mph E1.3 kmh E 1.0 mph1.6 kmh 29.98 in1015.2 mb - 0.00 in0.0 mm 0.00 in0.0 mm
08:30 PM 59.9°F15.5°C 50.5°F10.3°C 71% 1.0 mph E1.6 kmh E 2.0 mph3.2 kmh 29.97 in1014.9 mb - 0.00 in0.0 mm 0.00 in0.0 mm
08:45 PM 59.5°F15.3°C 50.5°F10.3°C 72% 0.2 mph ESE0.3 kmh ESE 3.0 mph4.8 kmh 29.97 in1014.9 mb - 0.00 in0.0 mm 0.00 in0.0 mm
09:00 PM 59.0°F15.0°C 50.0°F10.0°C 72% 3.3 mph SSE5.3 kmh SSE 5.0 mph8.0 kmh 29.97 in1014.9 mb - 0.00 in0.0 mm 0.00 in0.0 mm
09:15 PM 58.7°F14.8°C 50.1°F10.1°C 73% 2.8 mph E4.5 kmh E 4.0 mph6.4 kmh 29.97 in1014.9 mb - 0.00 in0.0 mm 0.00 in0.0 mm
09:30 PM 58.3°F14.6°C 50.8°F10.4°C 76% 1.5 mph ESE2.4 kmh ESE 2.0 mph3.2 kmh 29.97 in1014.9 mb - 0.00 in0.0 mm 0.00 in0.0 mm
09:45 PM 58.0°F14.4°C 51.5°F10.8°C 79% 2.2 mph SE3.5 kmh SE 3.0 mph4.8 kmh 29.98 in1015.2 mb - 0.00 in0.0 mm 0.00 in0.0 mm
10:00 PM 57.7°F14.3°C 51.9°F11.1°C 81% 0.4 mph S0.6 kmh S 2.0 mph3.2 kmh 29.98 in1015.2 mb - 0.00 in0.0 mm 0.00 in0.0 mm
10:15 PM 57.4°F14.1°C 51.9°F11.1°C 82% 2.7 mph SE4.3 kmh SE 3.0 mph4.8 kmh 29.97 in1014.9 mb - 0.00 in0.0 mm 0.00 in0.0 mm
10:30 PM 57.1°F13.9°C 52.0°F11.1°C 83% 2.1 mph ESE3.4 kmh ESE 3.0 mph4.8 kmh 29.97 in1014.9 mb - 0.00 in0.0 mm 0.00 in0.0 mm
10:45 PM 56.9°F13.8°C 52.1°F11.2°C 84% 1.7 mph ESE2.7 kmh ESE 3.0 mph4.8 kmh 29.97 in1014.9 mb - 0.00 in0.0 mm 0.00 in0.0 mm
11:00 PM 56.7°F13.7°C 51.9°F11.1°C 84% 1.0 mph ESE1.6 kmh ESE 2.0 mph3.2 kmh 29.97 in1014.9 mb - 0.00 in0.0 mm 0.00 in0.0 mm
11:15 PM 56.5°F13.6°C 52.0°F11.1°C 85% 0.9 mph ESE1.4 kmh ESE 2.0 mph3.2 kmh 29.97 in1014.9 mb - 0.00 in0.0 mm 0.00 in0.0 mm
11:30 PM 56.2°F13.4°C 52.1°F11.2°C 86% 1.0 mph ESE1.6 kmh ESE 3.0 mph4.8 kmh 29.96 in1014.6 mb - 0.00 in0.0 mm 0.00 in0.0 mm
11:45 PM 56.0°F13.3°C 52.2°F11.2°C 87% 1.2 mph ESE1.9 kmh ESE 3.0 mph4.8 kmh 29.96 in1014.6 mb - 0.00 in0.0 mm 0.00 in0.0 mm